sensor_id;sensor_type;location;lat;lon;timestamp;temperature;humidity
37570;DHT22;57786;54.376;10.232;2022-08-02T00:00:14;23.50;95.70
37570;DHT22;57786;54.376;10.232;2022-08-02T00:02:41;23.40;95.60
37570;DHT22;57786;54.376;10.232;2022-08-02T00:05:07;23.40;95.40
37570;DHT22;57786;54.376;10.232;2022-08-02T00:07:34;23.40;95.60
37570;DHT22;57786;54.376;10.232;2022-08-02T00:10:00;23.40;95.60
37570;DHT22;57786;54.376;10.232;2022-08-02T00:12:25;23.40;95.60
37570;DHT22;57786;54.376;10.232;2022-08-02T00:14:51;23.40;95.90
37570;DHT22;57786;54.376;10.232;2022-08-02T00:17:17;23.40;95.60
37570;DHT22;57786;54.376;10.232;2022-08-02T00:19:43;23.40;95.60
37570;DHT22;57786;54.376;10.232;2022-08-02T00:22:09;23.40;95.60
37570;DHT22;57786;54.376;10.232;2022-08-02T00:24:34;23.50;95.60
37570;DHT22;57786;54.376;10.232;2022-08-02T00:27:00;23.40;95.60
37570;DHT22;57786;54.376;10.232;2022-08-02T00:29:31;23.40;95.60
37570;DHT22;57786;54.376;10.232;2022-08-02T00:31:56;23.40;95.60
37570;DHT22;57786;54.376;10.232;2022-08-02T00:34:23;23.40;95.60
37570;DHT22;57786;54.376;10.232;2022-08-02T00:36:48;23.40;95.60
37570;DHT22;57786;54.376;10.232;2022-08-02T00:39:14;23.50;95.60
37570;DHT22;57786;54.376;10.232;2022-08-02T00:41:51;23.30;95.60
37570;DHT22;57786;54.376;10.232;2022-08-02T00:44:18;23.40;95.60
37570;DHT22;57786;54.376;10.232;2022-08-02T00:46:44;23.40;95.60
37570;DHT22;57786;54.376;10.232;2022-08-02T00:49:10;23.40;95.60
37570;DHT22;57786;54.376;10.232;2022-08-02T00:51:37;23.40;95.60
37570;DHT22;57786;54.376;10.232;2022-08-02T00:54:03;23.40;95.60
37570;DHT22;57786;54.376;10.232;2022-08-02T00:56:29;23.40;95.70
37570;DHT22;57786;54.376;10.232;2022-08-02T00:58:55;23.40;95.70
37570;DHT22;57786;54.376;10.232;2022-08-02T01:01:20;23.40;95.70
37570;DHT22;57786;54.376;10.232;2022-08-02T01:04:03;23.40;95.60
37570;DHT22;57786;54.376;10.232;2022-08-02T01:06:29;23.40;95.50
37570;DHT22;57786;54.376;10.232;2022-08-02T01:08:58;23.40;95.60
37570;DHT22;57786;54.376;10.232;2022-08-02T01:11:23;23.40;95.50
37570;DHT22;57786;54.376;10.232;2022-08-02T01:13:49;23.40;95.50
37570;DHT22;57786;54.376;10.232;2022-08-02T01:16:18;23.40;95.60
37570;DHT22;57786;54.376;10.232;2022-08-02T01:18:49;23.40;95.50
37570;DHT22;57786;54.376;10.232;2022-08-02T01:22:11;23.60;95.70
37570;DHT22;57786;54.376;10.232;2022-08-02T01:24:20;23.40;95.60
37570;DHT22;57786;54.376;10.232;2022-08-02T01:26:54;23.40;95.60
37570;DHT22;57786;54.376;10.232;2022-08-02T01:29:29;23.30;95.50
37570;DHT22;57786;54.376;10.232;2022-08-02T01:32:11;23.40;95.70
37570;DHT22;57786;54.376;10.232;2022-08-02T01:35:00;23.40;95.60
37570;DHT22;57786;54.376;10.232;2022-08-02T01:37:34;23.30;95.60
37570;DHT22;57786;54.376;10.232;2022-08-02T01:40:15;23.40;95.60
37570;DHT22;57786;54.376;10.232;2022-08-02T01:42:45;23.30;95.80
37570;DHT22;57786;54.376;10.232;2022-08-02T01:45:12;23.30;95.50
37570;DHT22;57786;54.376;10.232;2022-08-02T01:47:40;23.40;95.70
37570;DHT22;57786;54.376;10.232;2022-08-02T01:50:11;23.40;95.70
37570;DHT22;57786;54.376;10.232;2022-08-02T01:52:44;23.30;95.60
37570;DHT22;57786;54.376;10.232;2022-08-02T01:55:13;23.30;95.60
37570;DHT22;57786;54.376;10.232;2022-08-02T01:57:45;23.30;95.60
37570;DHT22;57786;54.376;10.232;2022-08-02T02:00:12;23.30;95.50
37570;DHT22;57786;54.376;10.232;2022-08-02T02:02:42;23.30;95.50
37570;DHT22;57786;54.376;10.232;2022-08-02T02:05:12;23.30;95.50
37570;DHT22;57786;54.376;10.232;2022-08-02T02:07:39;23.30;95.60
37570;DHT22;57786;54.376;10.232;2022-08-02T02:10:08;23.30;95.50
37570;DHT22;57786;54.376;10.232;2022-08-02T02:12:36;23.30;95.40
37570;DHT22;57786;54.376;10.232;2022-08-02T02:15:04;23.30;95.30
37570;DHT22;57786;54.376;10.232;2022-08-02T02:17:31;23.30;95.20
37570;DHT22;57786;54.376;10.232;2022-08-02T02:19:59;23.30;95.20
37570;DHT22;57786;54.376;10.232;2022-08-02T02:22:25;23.30;95.20
37570;DHT22;57786;54.376;10.232;2022-08-02T02:24:51;23.30;95.00
37570;DHT22;57786;54.376;10.232;2022-08-02T02:27:18;23.40;95.30
37570;DHT22;57786;54.376;10.232;2022-08-02T02:29:46;23.30;95.20
37570;DHT22;57786;54.376;10.232;2022-08-02T02:32:14;23.30;95.20
37570;DHT22;57786;54.376;10.232;2022-08-02T02:34:43;23.30;95.10
37570;DHT22;57786;54.376;10.232;2022-08-02T02:37:16;23.30;95.20
37570;DHT22;57786;54.376;10.232;2022-08-02T02:39:44;23.30;95.30
37570;DHT22;57786;54.376;10.232;2022-08-02T02:42:14;23.30;95.20
37570;DHT22;57786;54.376;10.232;2022-08-02T02:44:42;23.30;95.30
37570;DHT22;57786;54.376;10.232;2022-08-02T02:47:10;23.30;95.30
37570;DHT22;57786;54.376;10.232;2022-08-02T02:49:36;23.30;95.20
37570;DHT22;57786;54.376;10.232;2022-08-02T02:52:04;23.30;95.20
37570;DHT22;57786;54.376;10.232;2022-08-02T02:54:32;23.40;95.20
37570;DHT22;57786;54.376;10.232;2022-08-02T02:56:59;23.30;95.20
37570;DHT22;57786;54.376;10.232;2022-08-02T02:59:25;23.30;95.40
37570;DHT22;57786;54.376;10.232;2022-08-02T03:01:52;23.40;95.20
37570;DHT22;57786;54.376;10.232;2022-08-02T03:04:19;23.30;95.20
37570;DHT22;57786;54.376;10.232;2022-08-02T03:06:46;23.40;95.20
37570;DHT22;57786;54.376;10.232;2022-08-02T03:09:11;23.30;95.30
37570;DHT22;57786;54.376;10.232;2022-08-02T03:11:38;23.30;95.30
37570;DHT22;57786;54.376;10.232;2022-08-02T03:14:08;23.30;95.20
37570;DHT22;57786;54.376;10.232;2022-08-02T03:16:42;23.40;95.30
37570;DHT22;57786;54.376;10.232;2022-08-02T03:19:08;23.30;95.50
37570;DHT22;57786;54.376;10.232;2022-08-02T03:21:33;23.40;95.20
37570;DHT22;57786;54.376;10.232;2022-08-02T03:23:59;23.20;95.10
37570;DHT22;57786;54.376;10.232;2022-08-02T03:26:24;23.30;95.20
37570;DHT22;57786;54.376;10.232;2022-08-02T03:28:50;23.30;95.20
37570;DHT22;57786;54.376;10.232;2022-08-02T03:31:16;23.30;95.20
37570;DHT22;57786;54.376;10.232;2022-08-02T03:33:41;23.30;95.20
37570;DHT22;57786;54.376;10.232;2022-08-02T03:36:11;23.30;95.10
37570;DHT22;57786;54.376;10.232;2022-08-02T03:38:38;23.30;95.20
37570;DHT22;57786;54.376;10.232;2022-08-02T03:41:05;23.30;95.20
37570;DHT22;57786;54.376;10.232;2022-08-02T03:43:32;23.30;95.20
37570;DHT22;57786;54.376;10.232;2022-08-02T03:45:59;23.30;95.20
37570;DHT22;57786;54.376;10.232;2022-08-02T03:48:26;23.20;95.10
37570;DHT22;57786;54.376;10.232;2022-08-02T03:50:53;23.20;95.00
37570;DHT22;57786;54.376;10.232;2022-08-02T03:53:20;23.20;95.00
37570;DHT22;57786;54.376;10.232;2022-08-02T03:55:46;23.30;95.10
37570;DHT22;57786;54.376;10.232;2022-08-02T03:58:17;23.30;95.00
37570;DHT22;57786;54.376;10.232;2022-08-02T04:00:43;23.30;95.00
37570;DHT22;57786;54.376;10.232;2022-08-02T04:03:09;23.30;95.00
37570;DHT22;57786;54.376;10.232;2022-08-02T04:05:34;23.20;95.00
37570;DHT22;57786;54.376;10.232;2022-08-02T04:08:00;23.20;95.00
37570;DHT22;57786;54.376;10.232;2022-08-02T04:10:26;23.20;95.00
37570;DHT22;57786;54.376;10.232;2022-08-02T04:12:52;23.20;95.00
37570;DHT22;57786;54.376;10.232;2022-08-02T04:15:18;23.20;95.00
37570;DHT22;57786;54.376;10.232;2022-08-02T04:17:52;23.20;95.00
37570;DHT22;57786;54.376;10.232;2022-08-02T04:20:20;23.20;95.00
37570;DHT22;57786;54.376;10.232;2022-08-02T04:22:54;23.20;95.00
37570;DHT22;57786;54.376;10.232;2022-08-02T04:25:22;23.20;95.00
37570;DHT22;57786;54.376;10.232;2022-08-02T04:27:49;23.20;95.00
37570;DHT22;57786;54.376;10.232;2022-08-02T04:30:16;23.20;95.00
37570;DHT22;57786;54.376;10.232;2022-08-02T04:32:43;23.20;94.80
37570;DHT22;57786;54.376;10.232;2022-08-02T04:35:09;23.30;94.90
37570;DHT22;57786;54.376;10.232;2022-08-02T04:37:36;23.20;94.80
37570;DHT22;57786;54.376;10.232;2022-08-02T04:40:09;23.20;94.80
37570;DHT22;57786;54.376;10.232;2022-08-02T04:42:35;23.20;94.80
37570;DHT22;57786;54.376;10.232;2022-08-02T04:45:00;23.30;94.80
37570;DHT22;57786;54.376;10.232;2022-08-02T04:47:27;23.20;94.70
37570;DHT22;57786;54.376;10.232;2022-08-02T04:49:53;23.20;94.80
37570;DHT22;57786;54.376;10.232;2022-08-02T04:52:19;23.20;94.70
37570;DHT22;57786;54.376;10.232;2022-08-02T04:54:44;23.30;95.00
37570;DHT22;57786;54.376;10.232;2022-08-02T04:57:10;23.40;94.90
37570;DHT22;57786;54.376;10.232;2022-08-02T04:59:55;23.30;94.90
37570;DHT22;57786;54.376;10.232;2022-08-02T05:02:21;23.20;94.80
37570;DHT22;57786;54.376;10.232;2022-08-02T05:04:46;23.20;94.90
37570;DHT22;57786;54.376;10.232;2022-08-02T05:07:12;23.20;94.90
37570;DHT22;57786;54.376;10.232;2022-08-02T05:09:38;23.20;94.90
37570;DHT22;57786;54.376;10.232;2022-08-02T05:12:03;23.20;94.80
37570;DHT22;57786;54.376;10.232;2022-08-02T05:14:29;23.20;94.70
37570;DHT22;57786;54.376;10.232;2022-08-02T05:16:54;23.20;94.70
37570;DHT22;57786;54.376;10.232;2022-08-02T05:19:20;23.20;94.80
37570;DHT22;57786;54.376;10.232;2022-08-02T05:21:46;23.10;94.80
37570;DHT22;57786;54.376;10.232;2022-08-02T05:24:11;23.30;94.80
37570;DHT22;57786;54.376;10.232;2022-08-02T05:26:38;23.20;94.70
37570;DHT22;57786;54.376;10.232;2022-08-02T05:29:03;23.30;94.80
37570;DHT22;57786;54.376;10.232;2022-08-02T05:31:29;23.30;94.80
37570;DHT22;57786;54.376;10.232;2022-08-02T05:33:55;23.20;94.80
37570;DHT22;57786;54.376;10.232;2022-08-02T05:36:21;23.30;94.80
37570;DHT22;57786;54.376;10.232;2022-08-02T05:38:46;23.30;94.80
37570;DHT22;57786;54.376;10.232;2022-08-02T05:41:12;23.30;94.80
37570;DHT22;57786;54.376;10.232;2022-08-02T05:43:37;23.20;94.80
37570;DHT22;57786;54.376;10.232;2022-08-02T05:46:03;23.20;94.80
37570;DHT22;57786;54.376;10.232;2022-08-02T05:48:29;23.20;94.80
37570;DHT22;57786;54.376;10.232;2022-08-02T05:51:04;23.20;94.80
37570;DHT22;57786;54.376;10.232;2022-08-02T05:53:50;23.20;94.90
37570;DHT22;57786;54.376;10.232;2022-08-02T05:59:03;23.30;94.90
37570;DHT22;57786;54.376;10.232;2022-08-02T06:01:34;23.30;94.90
37570;DHT22;57786;54.376;10.232;2022-08-02T06:04:05;23.30;94.90
37570;DHT22;57786;54.376;10.232;2022-08-02T06:06:32;23.20;94.80
37570;DHT22;57786;54.376;10.232;2022-08-02T06:09:00;23.30;95.20
37570;DHT22;57786;54.376;10.232;2022-08-02T06:11:35;23.20;95.10
37570;DHT22;57786;54.376;10.232;2022-08-02T06:14:05;23.20;94.90
37570;DHT22;57786;54.376;10.232;2022-08-02T06:16:33;23.30;94.90
37570;DHT22;57786;54.376;10.232;2022-08-02T06:18:59;23.20;94.90
37570;DHT22;57786;54.376;10.232;2022-08-02T06:21:26;23.20;94.90
37570;DHT22;57786;54.376;10.232;2022-08-02T06:23:52;23.20;94.90
37570;DHT22;57786;54.376;10.232;2022-08-02T06:26:18;23.20;95.00
37570;DHT22;57786;54.376;10.232;2022-08-02T06:28:45;23.40;95.00
37570;DHT22;57786;54.376;10.232;2022-08-02T06:31:12;23.20;95.00
37570;DHT22;57786;54.376;10.232;2022-08-02T06:33:39;23.20;95.00
37570;DHT22;57786;54.376;10.232;2022-08-02T06:36:21;23.30;95.00
37570;DHT22;57786;54.376;10.232;2022-08-02T06:41:27;23.20;94.90
37570;DHT22;57786;54.376;10.232;2022-08-02T06:44:03;23.20;95.00
37570;DHT22;57786;54.376;10.232;2022-08-02T06:46:29;23.20;94.90
37570;DHT22;57786;54.376;10.232;2022-08-02T06:48:55;23.20;94.90
37570;DHT22;57786;54.376;10.232;2022-08-02T06:51:21;23.20;94.90
37570;DHT22;57786;54.376;10.232;2022-08-02T06:53:47;23.20;94.90
37570;DHT22;57786;54.376;10.232;2022-08-02T06:56:12;23.20;94.90
37570;DHT22;57786;54.376;10.232;2022-08-02T06:58:38;23.30;95.20
37570;DHT22;57786;54.376;10.232;2022-08-02T07:01:05;23.30;95.00
37570;DHT22;57786;54.376;10.232;2022-08-02T07:03:33;23.20;95.00
37570;DHT22;57786;54.376;10.232;2022-08-02T07:05:59;23.30;95.00
37570;DHT22;57786;54.376;10.232;2022-08-02T07:08:24;23.30;95.00
37570;DHT22;57786;54.376;10.232;2022-08-02T07:10:51;23.30;95.00
37570;DHT22;57786;54.376;10.232;2022-08-02T07:13:17;23.30;95.00
37570;DHT22;57786;54.376;10.232;2022-08-02T07:15:43;23.20;95.00
37570;DHT22;57786;54.376;10.232;2022-08-02T07:18:08;23.30;95.00
37570;DHT22;57786;54.376;10.232;2022-08-02T07:20:40;23.30;95.00
37570;DHT22;57786;54.376;10.232;2022-08-02T07:23:06;23.30;95.00
37570;DHT22;57786;54.376;10.232;2022-08-02T07:25:32;23.30;95.00
37570;DHT22;57786;54.376;10.232;2022-08-02T07:27:57;23.30;95.00
37570;DHT22;57786;54.376;10.232;2022-08-02T07:30:23;23.20;95.00
37570;DHT22;57786;54.376;10.232;2022-08-02T07:32:49;23.20;95.00
37570;DHT22;57786;54.376;10.232;2022-08-02T07:35:14;23.30;95.00
37570;DHT22;57786;54.376;10.232;2022-08-02T07:37:40;23.30;95.10
37570;DHT22;57786;54.376;10.232;2022-08-02T07:40:09;23.30;95.00
37570;DHT22;57786;54.376;10.232;2022-08-02T07:42:34;23.30;95.00
37570;DHT22;57786;54.376;10.232;2022-08-02T07:45:00;23.30;95.10
37570;DHT22;57786;54.376;10.232;2022-08-02T07:47:26;23.20;95.10
37570;DHT22;57786;54.376;10.232;2022-08-02T07:49:51;23.30;95.10
37570;DHT22;57786;54.376;10.232;2022-08-02T07:52:17;23.30;95.10
37570;DHT22;57786;54.376;10.232;2022-08-02T07:54:43;23.30;95.10
37570;DHT22;57786;54.376;10.232;2022-08-02T07:57:08;23.30;95.10
37570;DHT22;57786;54.376;10.232;2022-08-02T07:59:34;23.30;95.10
37570;DHT22;57786;54.376;10.232;2022-08-02T08:01:59;23.40;95.20
37570;DHT22;57786;54.376;10.232;2022-08-02T08:04:25;23.30;95.10
37570;DHT22;57786;54.376;10.232;2022-08-02T08:06:51;23.30;95.10
37570;DHT22;57786;54.376;10.232;2022-08-02T08:09:19;23.30;95.20
37570;DHT22;57786;54.376;10.232;2022-08-02T08:11:44;23.30;95.20
37570;DHT22;57786;54.376;10.232;2022-08-02T08:14:10;23.30;95.20
37570;DHT22;57786;54.376;10.232;2022-08-02T08:16:35;23.30;95.20
37570;DHT22;57786;54.376;10.232;2022-08-02T08:19:01;23.30;95.20
37570;DHT22;57786;54.376;10.232;2022-08-02T08:21:28;23.30;95.20
37570;DHT22;57786;54.376;10.232;2022-08-02T08:23:57;23.40;95.30
37570;DHT22;57786;54.376;10.232;2022-08-02T08:26:23;23.30;95.00
37570;DHT22;57786;54.376;10.232;2022-08-02T08:28:49;23.00;95.20
37570;DHT22;57786;54.376;10.232;2022-08-02T08:31:15;23.40;95.30
37570;DHT22;57786;54.376;10.232;2022-08-02T08:33:40;23.30;95.30
37570;DHT22;57786;54.376;10.232;2022-08-02T08:36:06;23.30;95.30
37570;DHT22;57786;54.376;10.232;2022-08-02T08:38:32;23.30;95.30
37570;DHT22;57786;54.376;10.232;2022-08-02T08:40:58;23.40;95.30
37570;DHT22;57786;54.376;10.232;2022-08-02T08:43:24;23.30;95.30
37570;DHT22;57786;54.376;10.232;2022-08-02T08:45:50;23.40;95.40
37570;DHT22;57786;54.376;10.232;2022-08-02T08:48:16;23.30;95.30
37570;DHT22;57786;54.376;10.232;2022-08-02T08:51:09;23.30;95.30
37570;DHT22;57786;54.376;10.232;2022-08-02T08:53:39;23.30;95.30
37570;DHT22;57786;54.376;10.232;2022-08-02T08:56:06;23.30;95.30
37570;DHT22;57786;54.376;10.232;2022-08-02T08:58:33;23.30;95.40
37570;DHT22;57786;54.376;10.232;2022-08-02T09:00:59;23.30;95.40
37570;DHT22;57786;54.376;10.232;2022-08-02T09:03:24;23.30;95.40
37570;DHT22;57786;54.376;10.232;2022-08-02T09:05:50;23.30;95.40
37570;DHT22;57786;54.376;10.232;2022-08-02T09:08:16;23.30;95.40
37570;DHT22;57786;54.376;10.232;2022-08-02T09:10:45;23.30;95.60
37570;DHT22;57786;54.376;10.232;2022-08-02T09:15:42;23.30;95.40
37570;DHT22;57786;54.376;10.232;2022-08-02T09:18:08;23.40;95.40
37570;DHT22;57786;54.376;10.232;2022-08-02T09:20:49;23.30;95.40
37570;DHT22;57786;54.376;10.232;2022-08-02T09:23:15;23.40;95.40
37570;DHT22;57786;54.376;10.232;2022-08-02T09:25:41;23.30;95.40
37570;DHT22;57786;54.376;10.232;2022-08-02T09:28:07;23.40;95.40
37570;DHT22;57786;54.376;10.232;2022-08-02T09:30:41;23.40;95.40
37570;DHT22;57786;54.376;10.232;2022-08-02T09:33:08;23.40;95.40
37570;DHT22;57786;54.376;10.232;2022-08-02T09:35:36;23.30;95.40
37570;DHT22;57786;54.376;10.232;2022-08-02T09:38:12;23.30;95.30
37570;DHT22;57786;54.376;10.232;2022-08-02T09:40:40;23.40;95.30
37570;DHT22;57786;54.376;10.232;2022-08-02T09:43:07;23.40;95.30
37570;DHT22;57786;54.376;10.232;2022-08-02T09:45:34;23.40;95.30
37570;DHT22;57786;54.376;10.232;2022-08-02T09:48:07;23.30;95.30
37570;DHT22;57786;54.376;10.232;2022-08-02T09:50:35;23.40;95.30
37570;DHT22;57786;54.376;10.232;2022-08-02T09:53:02;23.40;95.30
37570;DHT22;57786;54.376;10.232;2022-08-02T09:55:28;23.40;95.10
37570;DHT22;57786;54.376;10.232;2022-08-02T09:57:54;23.40;95.30
37570;DHT22;57786;54.376;10.232;2022-08-02T10:00:20;23.40;95.30
37570;DHT22;57786;54.376;10.232;2022-08-02T10:03:09;23.50;95.40
37570;DHT22;57786;54.376;10.232;2022-08-02T10:06:04;23.50;95.40
37570;DHT22;57786;54.376;10.232;2022-08-02T10:08:31;23.40;95.30
37570;DHT22;57786;54.376;10.232;2022-08-02T10:10:57;23.40;95.30
37570;DHT22;57786;54.376;10.232;2022-08-02T10:13:33;23.40;95.30
37570;DHT22;57786;54.376;10.232;2022-08-02T10:15:59;23.40;95.30
37570;DHT22;57786;54.376;10.232;2022-08-02T10:18:27;23.40;95.40
37570;DHT22;57786;54.376;10.232;2022-08-02T10:20:55;23.40;95.30
37570;DHT22;57786;54.376;10.232;2022-08-02T10:23:23;23.40;95.30
37570;DHT22;57786;54.376;10.232;2022-08-02T10:25:50;23.40;95.30
37570;DHT22;57786;54.376;10.232;2022-08-02T10:28:19;23.40;95.40
37570;DHT22;57786;54.376;10.232;2022-08-02T10:30:52;23.20;95.30
37570;DHT22;57786;54.376;10.232;2022-08-02T10:33:19;23.40;95.40
37570;DHT22;57786;54.376;10.232;2022-08-02T10:35:46;23.40;95.40
37570;DHT22;57786;54.376;10.232;2022-08-02T10:38:15;23.40;95.40
37570;DHT22;57786;54.376;10.232;2022-08-02T10:40:52;23.40;95.40
37570;DHT22;57786;54.376;10.232;2022-08-02T10:49:12;23.40;95.40
37570;DHT22;57786;54.376;10.232;2022-08-02T10:54:21;23.40;95.30
37570;DHT22;57786;54.376;10.232;2022-08-02T10:56:48;23.40;95.30
37570;DHT22;57786;54.376;10.232;2022-08-02T11:01:56;23.40;95.40
37570;DHT22;57786;54.376;10.232;2022-08-02T11:07:20;23.40;95.40
37570;DHT22;57786;54.376;10.232;2022-08-02T11:09:55;23.40;95.40
37570;DHT22;57786;54.376;10.232;2022-08-02T11:12:21;23.40;95.40
37570;DHT22;57786;54.376;10.232;2022-08-02T11:15:02;23.40;95.50
37570;DHT22;57786;54.376;10.232;2022-08-02T11:17:51;23.40;95.50
37570;DHT22;57786;54.376;10.232;2022-08-02T11:20:18;23.40;95.40
37570;DHT22;57786;54.376;10.232;2022-08-02T11:22:45;23.40;95.50
37570;DHT22;57786;54.376;10.232;2022-08-02T11:27:53;23.40;95.50
37570;DHT22;57786;54.376;10.232;2022-08-02T11:30:20;23.40;95.50
37570;DHT22;57786;54.376;10.232;2022-08-02T11:32:47;23.40;95.50
37570;DHT22;57786;54.376;10.232;2022-08-02T11:35:13;23.40;95.80
37570;DHT22;57786;54.376;10.232;2022-08-02T11:37:42;23.40;95.50
37570;DHT22;57786;54.376;10.232;2022-08-02T11:40:12;23.40;95.60
37570;DHT22;57786;54.376;10.232;2022-08-02T11:42:39;23.40;95.50
37570;DHT22;57786;54.376;10.232;2022-08-02T11:45:07;23.40;95.60
37570;DHT22;57786;54.376;10.232;2022-08-02T11:47:47;23.50;95.60
37570;DHT22;57786;54.376;10.232;2022-08-02T11:50:13;23.40;95.60
37570;DHT22;57786;54.376;10.232;2022-08-02T11:52:39;23.40;95.60
37570;DHT22;57786;54.376;10.232;2022-08-02T11:55:05;23.50;95.60
37570;DHT22;57786;54.376;10.232;2022-08-02T11:57:32;23.40;95.60
37570;DHT22;57786;54.376;10.232;2022-08-02T11:59:58;23.40;95.60
37570;DHT22;57786;54.376;10.232;2022-08-02T12:02:28;23.50;95.70
37570;DHT22;57786;54.376;10.232;2022-08-02T12:05:05;23.50;95.70
37570;DHT22;57786;54.376;10.232;2022-08-02T12:07:36;23.50;95.70
37570;DHT22;57786;54.376;10.232;2022-08-02T12:10:05;23.40;95.70
37570;DHT22;57786;54.376;10.232;2022-08-02T12:12:31;23.50;95.60
37570;DHT22;57786;54.376;10.232;2022-08-02T12:14:57;23.50;95.70
37570;DHT22;57786;54.376;10.232;2022-08-02T12:17:23;23.40;95.60
37570;DHT22;57786;54.376;10.232;2022-08-02T12:20:08;23.40;95.70
37570;DHT22;57786;54.376;10.232;2022-08-02T12:22:34;23.40;95.70
37570;DHT22;57786;54.376;10.232;2022-08-02T12:25:19;23.50;95.70
37570;DHT22;57786;54.376;10.232;2022-08-02T12:27:46;23.50;95.70
37570;DHT22;57786;54.376;10.232;2022-08-02T12:30:13;23.50;95.70
37570;DHT22;57786;54.376;10.232;2022-08-02T12:32:40;23.50;95.70
37570;DHT22;57786;54.376;10.232;2022-08-02T12:37:31;23.50;95.70
37570;DHT22;57786;54.376;10.232;2022-08-02T12:39:57;23.40;95.70
37570;DHT22;57786;54.376;10.232;2022-08-02T12:42:23;23.50;95.70
37570;DHT22;57786;54.376;10.232;2022-08-02T12:44:57;23.50;95.70
37570;DHT22;57786;54.376;10.232;2022-08-02T12:47:26;23.50;95.70
37570;DHT22;57786;54.376;10.232;2022-08-02T12:52:39;23.50;95.70
37570;DHT22;57786;54.376;10.232;2022-08-02T12:58:00;23.50;95.80
37570;DHT22;57786;54.376;10.232;2022-08-02T13:02:54;23.50;95.80
37570;DHT22;57786;54.376;10.232;2022-08-02T13:05:20;23.50;95.80
37570;DHT22;57786;54.376;10.232;2022-08-02T13:07:45;23.50;95.80
37570;DHT22;57786;54.376;10.232;2022-08-02T13:10:11;23.60;95.80
37570;DHT22;57786;54.376;10.232;2022-08-02T13:12:36;23.50;95.80
37570;DHT22;57786;54.376;10.232;2022-08-02T13:15:07;23.40;95.70
37570;DHT22;57786;54.376;10.232;2022-08-02T13:17:33;23.30;95.70
37570;DHT22;57786;54.376;10.232;2022-08-02T13:19:59;23.40;95.80
37570;DHT22;57786;54.376;10.232;2022-08-02T13:22:24;23.50;95.80
37570;DHT22;57786;54.376;10.232;2022-08-02T13:24:50;23.50;96.10
37570;DHT22;57786;54.376;10.232;2022-08-02T13:27:17;23.40;95.80
37570;DHT22;57786;54.376;10.232;2022-08-02T13:29:43;23.50;95.90
37570;DHT22;57786;54.376;10.232;2022-08-02T13:32:08;23.50;95.80
37570;DHT22;57786;54.376;10.232;2022-08-02T13:34:34;23.40;95.80
37570;DHT22;57786;54.376;10.232;2022-08-02T13:37:01;23.40;95.80
37570;DHT22;57786;54.376;10.232;2022-08-02T13:39:26;23.30;95.80
37570;DHT22;57786;54.376;10.232;2022-08-02T13:41:52;23.50;95.90
37570;DHT22;57786;54.376;10.232;2022-08-02T13:44:17;23.50;95.90
37570;DHT22;57786;54.376;10.232;2022-08-02T13:46:43;23.50;95.90
37570;DHT22;57786;54.376;10.232;2022-08-02T13:49:09;23.50;95.90
37570;DHT22;57786;54.376;10.232;2022-08-02T13:51:35;23.50;95.90
37570;DHT22;57786;54.376;10.232;2022-08-02T13:54:00;23.50;95.90
37570;DHT22;57786;54.376;10.232;2022-08-02T13:56:26;23.50;95.90
37570;DHT22;57786;54.376;10.232;2022-08-02T13:58:52;23.50;95.90
37570;DHT22;57786;54.376;10.232;2022-08-02T14:01:17;23.60;96.20
37570;DHT22;57786;54.376;10.232;2022-08-02T14:03:43;23.50;95.90
37570;DHT22;57786;54.376;10.232;2022-08-02T14:06:09;23.50;95.90
37570;DHT22;57786;54.376;10.232;2022-08-02T14:08:35;23.50;95.90
37570;DHT22;57786;54.376;10.232;2022-08-02T14:11:00;23.50;96.00
37570;DHT22;57786;54.376;10.232;2022-08-02T14:13:26;23.50;96.00
37570;DHT22;57786;54.376;10.232;2022-08-02T14:15:52;23.50;96.00
37570;DHT22;57786;54.376;10.232;2022-08-02T14:18:17;23.50;96.00
37570;DHT22;57786;54.376;10.232;2022-08-02T14:20:44;23.50;96.10
37570;DHT22;57786;54.376;10.232;2022-08-02T14:23:10;23.50;96.00
37570;DHT22;57786;54.376;10.232;2022-08-02T14:25:35;23.50;96.00
37570;DHT22;57786;54.376;10.232;2022-08-02T14:28:03;23.50;96.00
37570;DHT22;57786;54.376;10.232;2022-08-02T14:30:28;23.60;96.10
37570;DHT22;57786;54.376;10.232;2022-08-02T14:32:54;23.50;96.10
37570;DHT22;57786;54.376;10.232;2022-08-02T14:35:20;23.50;96.10
37570;DHT22;57786;54.376;10.232;2022-08-02T14:37:45;23.60;96.10
37570;DHT22;57786;54.376;10.232;2022-08-02T14:40:11;23.50;96.10
37570;DHT22;57786;54.376;10.232;2022-08-02T14:42:38;23.50;96.10
37570;DHT22;57786;54.376;10.232;2022-08-02T14:45:04;23.50;96.10
37570;DHT22;57786;54.376;10.232;2022-08-02T14:47:30;23.50;96.10
37570;DHT22;57786;54.376;10.232;2022-08-02T14:49:56;23.50;96.10
37570;DHT22;57786;54.376;10.232;2022-08-02T14:52:21;23.50;96.10
37570;DHT22;57786;54.376;10.232;2022-08-02T14:54:47;23.50;96.10
37570;DHT22;57786;54.376;10.232;2022-08-02T14:57:13;23.50;96.10
37570;DHT22;57786;54.376;10.232;2022-08-02T14:59:39;23.50;96.20
37570;DHT22;57786;54.376;10.232;2022-08-02T15:02:05;23.30;96.10
37570;DHT22;57786;54.376;10.232;2022-08-02T15:04:31;23.50;96.20
37570;DHT22;57786;54.376;10.232;2022-08-02T15:06:59;23.50;96.20
37570;DHT22;57786;54.376;10.232;2022-08-02T15:09:26;23.50;96.20
37570;DHT22;57786;54.376;10.232;2022-08-02T15:11:51;23.40;96.20
37570;DHT22;57786;54.376;10.232;2022-08-02T15:14:19;23.50;96.20
37570;DHT22;57786;54.376;10.232;2022-08-02T15:16:45;23.50;96.20
37570;DHT22;57786;54.376;10.232;2022-08-02T15:19:11;23.50;96.20
37570;DHT22;57786;54.376;10.232;2022-08-02T15:21:36;23.50;96.20
37570;DHT22;57786;54.376;10.232;2022-08-02T15:24:02;23.40;96.20
37570;DHT22;57786;54.376;10.232;2022-08-02T15:26:28;23.50;96.20
37570;DHT22;57786;54.376;10.232;2022-08-02T15:28:53;23.50;96.20
37570;DHT22;57786;54.376;10.232;2022-08-02T15:31:21;23.50;96.20
37570;DHT22;57786;54.376;10.232;2022-08-02T15:33:46;23.50;96.30
37570;DHT22;57786;54.376;10.232;2022-08-02T15:36:12;23.50;96.30
37570;DHT22;57786;54.376;10.232;2022-08-02T15:38:38;23.50;96.30
37570;DHT22;57786;54.376;10.232;2022-08-02T15:41:04;23.50;96.30
37570;DHT22;57786;54.376;10.232;2022-08-02T15:43:30;23.50;96.30
37570;DHT22;57786;54.376;10.232;2022-08-02T15:45:55;23.50;96.00
37570;DHT22;57786;54.376;10.232;2022-08-02T15:48:21;23.50;96.30
37570;DHT22;57786;54.376;10.232;2022-08-02T15:50:47;23.40;96.30
37570;DHT22;57786;54.376;10.232;2022-08-02T15:53:13;23.50;96.30